createdAt,value
2017-08-28T00:00:36.002Z,70.61
2017-08-28T00:03:03.505Z,71.33
2017-08-28T00:05:30.993Z,72.38
2017-08-28T00:07:58.477Z,72.98
2017-08-28T00:10:25.975Z,72.65
2017-08-28T00:12:53.461Z,72.27
2017-08-28T00:15:20.978Z,72.25
2017-08-28T00:17:48.470Z,72.49
2017-08-28T00:20:15.967Z,72.23
2017-08-28T00:22:43.462Z,72.33
2017-08-28T00:25:10.970Z,72.32
2017-08-28T00:27:38.467Z,71.93
2017-08-28T00:30:05.981Z,71.56
2017-08-28T00:32:33.473Z,71.58
2017-08-28T00:35:00.961Z,71.86
2017-08-28T00:37:28.433Z,71.93
2017-08-28T00:39:55.927Z,71.55
2017-08-28T00:42:23.469Z,71.32
2017-08-28T00:44:50.943Z,71.28
2017-08-28T00:47:18.431Z,71.51
2017-08-28T00:49:45.921Z,71.64
2017-08-28T00:52:13.437Z,71.54
2017-08-28T00:54:40.901Z,71.62
2017-08-28T00:57:08.423Z,71.75
2017-08-28T00:59:36.373Z,71.81
2017-08-28T01:02:03.894Z,71.95
2017-08-28T01:04:31.384Z,72.18
2017-08-28T01:06:58.854Z,72.56
2017-08-28T01:09:26.387Z,72.92
2017-08-28T01:11:54.689Z,72.60
2017-08-28T01:14:22.197Z,72.48
2017-08-28T01:16:49.675Z,72.77
2017-08-28T01:19:17.175Z,72.83
2017-08-28T01:21:44.652Z,72.43
2017-08-28T01:24:12.675Z,72.28
2017-08-28T01:26:40.183Z,71.95
2017-08-28T01:34:53.528Z,72.05
2017-08-28T01:37:21.025Z,71.87
2017-08-28T01:39:48.541Z,72.35
2017-08-28T01:42:16.153Z,72.48
2017-08-28T01:44:43.687Z,72.09
2017-08-28T01:47:11.188Z,71.87
2017-08-28T01:49:38.716Z,71.75
2017-08-28T01:52:06.189Z,71.93
2017-08-28T01:54:33.702Z,72.06
2017-08-28T01:57:01.169Z,72.03
2017-08-28T01:59:28.657Z,71.73
2017-08-28T02:01:56.149Z,71.71
2017-08-28T02:04:23.661Z,71.91
2017-08-28T02:06:51.155Z,71.95
2017-08-28T02:09:18.664Z,72.23
2017-08-28T02:11:46.147Z,72.30
2017-08-28T02:14:13.661Z,72.82
2017-08-28T02:16:41.140Z,73.31
2017-08-28T02:19:08.660Z,73.31
2017-08-28T02:21:36.999Z,73.66
2017-08-28T02:24:05.322Z,73.59
2017-08-28T02:26:32.831Z,73.65
2017-08-28T02:29:00.310Z,73.32
2017-08-28T02:31:27.801Z,72.97
2017-08-28T02:33:55.294Z,73.07
2017-08-28T02:36:22.805Z,73.85
2017-08-28T02:38:50.288Z,74.51
2017-08-28T02:41:17.803Z,74.29
2017-08-28T02:43:45.296Z,74.26
2017-08-28T02:46:12.950Z,73.84
2017-08-28T02:48:40.441Z,73.53
2017-08-28T02:51:07.928Z,73.44
2017-08-28T02:53:35.423Z,73.74
2017-08-28T02:56:02.902Z,73.38
2017-08-28T02:58:30.413Z,73.50
2017-08-28T03:00:57.878Z,73.10
2017-08-28T03:03:25.379Z,72.67
2017-08-28T03:05:52.914Z,72.99
2017-08-28T03:08:20.439Z,73.21
2017-08-28T03:10:47.922Z,74.11
2017-08-28T03:13:15.418Z,74.22
2017-08-28T03:15:42.947Z,74.35
2017-08-28T03:18:10.460Z,74.03
2017-08-28T03:20:37.999Z,73.45
2017-08-28T03:23:05.485Z,73.31
2017-08-28T03:25:32.972Z,73.37
2017-08-28T03:28:00.466Z,72.95
2017-08-28T03:30:28.339Z,72.96
2017-08-28T03:32:55.827Z,72.86
2017-08-28T03:35:23.332Z,72.91
2017-08-28T03:37:50.840Z,72.67
2017-08-28T03:40:18.564Z,72.71
2017-08-28T03:42:46.042Z,72.91
2017-08-28T03:45:13.518Z,73.20
2017-08-28T03:47:41.020Z,73.40
2017-08-28T03:50:08.495Z,73.73
2017-08-28T03:52:35.989Z,74.11
2017-08-28T03:55:04.373Z,73.74
2017-08-28T03:57:31.981Z,73.24
2017-08-28T03:59:59.934Z,73.36
2017-08-28T04:02:27.406Z,73.78
2017-08-28T04:04:54.914Z,73.63
2017-08-28T04:07:22.397Z,73.46
2017-08-28T04:09:49.904Z,73.31
2017-08-28T04:12:17.448Z,73.33
2017-08-28T04:14:44.976Z,73.43
2017-08-28T04:17:12.507Z,73.51
2017-08-28T04:19:40.002Z,73.69
2017-08-28T04:22:07.519Z,73.69
2017-08-28T04:24:35.811Z,73.52
2017-08-28T04:27:03.330Z,73.40
2017-08-28T04:29:30.801Z,73.25
2017-08-28T04:31:58.367Z,73.53
2017-08-28T04:34:25.838Z,73.46
2017-08-28T04:36:53.344Z,73.37
2017-08-28T04:39:20.855Z,73.82
2017-08-28T04:41:48.337Z,73.87
2017-08-28T04:44:15.864Z,73.89
2017-08-28T04:46:43.371Z,73.74
2017-08-28T04:49:10.861Z,73.63
2017-08-28T04:51:38.364Z,73.65
2017-08-28T04:54:05.857Z,73.60
2017-08-28T04:56:33.358Z,73.35
2017-08-28T04:59:00.876Z,73.46
2017-08-28T05:01:28.355Z,73.30
2017-08-28T05:03:55.906Z,73.07
2017-08-28T05:06:23.457Z,72.92
2017-08-28T05:08:51.341Z,72.98
2017-08-28T05:11:18.851Z,73.18
2017-08-28T05:13:46.437Z,73.40
2017-08-28T05:16:13.966Z,73.27
2017-08-28T05:18:41.454Z,73.48
2017-08-28T05:21:08.940Z,73.52
2017-08-28T05:23:36.491Z,74.12
2017-08-28T05:26:04.526Z,74.28
2017-08-28T05:28:32.037Z,74.39
2017-08-28T05:30:59.599Z,74.70
2017-08-28T05:33:28.607Z,74.35
2017-08-28T05:35:56.085Z,74.37
2017-08-28T05:38:24.144Z,73.80
2017-08-28T05:40:52.769Z,73.55
2017-08-28T05:43:20.281Z,73.47
2017-08-28T05:45:47.861Z,73.41
2017-08-28T05:48:15.389Z,72.84
2017-08-28T05:50:42.925Z,72.55
2017-08-28T05:53:10.412Z,72.55
2017-08-28T05:55:37.878Z,72.60
2017-08-28T05:58:05.374Z,72.95
2017-08-28T06:00:32.878Z,73.19
2017-08-28T06:03:00.341Z,73.71
2017-08-28T06:05:27.846Z,73.90
2017-08-28T06:07:55.321Z,73.56
2017-08-28T06:10:22.835Z,73.23
2017-08-28T06:12:50.335Z,73.08
2017-08-28T06:15:17.789Z,73.17
2017-08-28T06:17:45.281Z,73.08
2017-08-28T06:20:12.814Z,72.98
2017-08-28T06:22:40.306Z,72.85
2017-08-28T06:25:07.783Z,72.40
2017-08-28T06:27:35.305Z,71.57
2017-08-28T06:30:02.773Z,71.37
2017-08-28T06:32:30.273Z,71.25
2017-08-28T06:34:57.778Z,71.34
2017-08-28T06:37:25.237Z,71.25
2017-08-28T06:39:52.777Z,71.33
2017-08-28T06:42:20.253Z,71.10
2017-08-28T06:44:47.738Z,70.89
2017-08-28T06:47:15.239Z,70.47
2017-08-28T06:49:42.757Z,70.23
2017-08-28T06:52:10.259Z,69.73
2017-08-28T06:54:37.771Z,69.31
2017-08-28T06:57:05.281Z,68.69
2017-08-28T06:59:33.353Z,68.25
2017-08-28T07:02:00.854Z,68.39
2017-08-28T07:04:28.362Z,68.05
2017-08-28T07:06:55.850Z,67.54
2017-08-28T07:09:23.351Z,67.53
2017-08-28T07:11:50.892Z,67.31
2017-08-28T07:14:18.411Z,67.06
2017-08-28T07:16:45.891Z,66.73
2017-08-28T07:19:13.444Z,66.56
2017-08-28T07:21:40.950Z,66.45
2017-08-28T07:24:09.223Z,66.32
2017-08-28T07:26:36.719Z,66.33
2017-08-28T07:29:05.146Z,66.15
2017-08-28T07:31:32.643Z,65.97
2017-08-28T07:34:02.502Z,65.68
2017-08-28T07:36:30.015Z,65.32
2017-08-28T07:38:57.502Z,64.88
2017-08-28T07:41:25.022Z,64.89
2017-08-28T07:43:52.576Z,65.06
2017-08-28T07:46:20.099Z,64.69
2017-08-28T07:48:47.616Z,64.37
2017-08-28T07:51:16.046Z,64.26
2017-08-28T07:53:43.539Z,63.92
2017-08-28T07:56:11.034Z,63.89
2017-08-28T07:58:38.509Z,63.37
2017-08-28T08:01:06.150Z,63.23
2017-08-28T08:03:33.642Z,63.26
2017-08-28T08:06:01.183Z,62.75
2017-08-28T08:08:28.712Z,62.25
2017-08-28T08:10:56.195Z,62.20
2017-08-28T08:13:23.713Z,61.84
2017-08-28T08:15:51.214Z,61.33
2017-08-28T08:18:18.717Z,61.82
2017-08-28T08:20:46.314Z,61.90
2017-08-28T08:23:13.837Z,61.46
2017-08-28T08:25:41.406Z,61.49
2017-08-28T08:28:08.907Z,61.27
2017-08-28T08:30:36.430Z,61.81
2017-08-28T08:33:05.059Z,61.81
2017-08-28T08:35:32.561Z,62.31
2017-08-28T08:38:00.030Z,61.80
2017-08-28T08:40:27.535Z,61.39
2017-08-28T08:42:55.884Z,61.04
2017-08-28T08:45:23.709Z,60.61
2017-08-28T08:47:51.247Z,59.82
2017-08-28T08:50:18.915Z,59.66
2017-08-28T08:52:46.388Z,58.83
2017-08-28T08:55:13.870Z,58.75
2017-08-28T08:57:41.365Z,57.95
2017-08-28T09:00:08.862Z,58.11
2017-08-28T09:02:36.381Z,57.77
2017-08-28T09:05:04.123Z,58.03
2017-08-28T09:07:31.660Z,57.72
2017-08-28T09:09:59.260Z,57.01
2017-08-28T09:12:26.778Z,56.99
2017-08-28T09:14:54.887Z,56.58
2017-08-28T09:17:22.395Z,56.11
2017-08-28T09:19:49.915Z,56.07
2017-08-28T09:22:17.451Z,56.54
2017-08-28T09:24:44.949Z,56.49
2017-08-28T09:27:12.691Z,56.35
2017-08-28T09:29:40.195Z,56.24
2017-08-28T09:32:07.729Z,55.56
2017-08-28T09:34:35.288Z,55.68
2017-08-28T09:37:02.778Z,55.56
2017-08-28T09:39:30.827Z,55.15
2017-08-28T09:41:58.323Z,54.73
2017-08-28T09:44:25.810Z,54.68
2017-08-28T09:46:53.324Z,54.06
2017-08-28T09:49:20.852Z,54.11
2017-08-28T09:51:48.349Z,54.13
2017-08-28T09:54:16.742Z,53.64
2017-08-28T09:56:44.233Z,54.49
2017-08-28T09:59:11.779Z,54.10
2017-08-28T10:01:39.287Z,54.28
2017-08-28T10:04:06.836Z,53.42
2017-08-28T10:06:34.396Z,53.16
2017-08-28T10:09:01.929Z,52.56
2017-08-28T10:11:29.772Z,52.00
2017-08-28T10:13:57.271Z,51.09
2017-08-28T10:16:24.753Z,50.92
2017-08-28T10:18:52.240Z,51.48
2017-08-28T10:21:20.758Z,50.84
2017-08-28T10:23:48.263Z,50.88
2017-08-28T10:26:15.794Z,50.72
2017-08-28T10:28:43.303Z,50.23
2017-08-28T10:31:10.837Z,49.42
2017-08-28T10:33:38.333Z,49.66
2017-08-28T10:36:05.853Z,49.98
2017-08-28T10:38:33.348Z,49.90
2017-08-28T10:41:00.878Z,49.39
2017-08-28T10:43:28.395Z,49.30
2017-08-28T10:45:55.912Z,49.24
2017-08-28T10:48:23.429Z,48.76
2017-08-28T10:50:50.904Z,48.26
2017-08-28T10:53:18.995Z,48.79
2017-08-28T10:55:46.472Z,49.05
2017-08-28T10:58:13.982Z,49.34
2017-08-28T11:00:41.499Z,49.55
2017-08-28T11:03:09.018Z,49.04
2017-08-28T11:05:36.546Z,47.91
2017-08-28T11:08:04.138Z,48.32
2017-08-28T11:10:31.687Z,47.93
2017-08-28T11:12:59.861Z,47.25
2017-08-28T11:15:27.354Z,46.56
2017-08-28T11:17:54.873Z,46.63
2017-08-28T11:20:25.131Z,46.39
2017-08-28T11:22:52.789Z,46.73
2017-08-28T11:25:20.279Z,46.22
2017-08-28T11:27:47.791Z,45.91
2017-08-28T11:30:15.295Z,46.01
2017-08-28T11:32:42.797Z,46.05
2017-08-28T11:35:10.725Z,45.25
2017-08-28T11:37:38.232Z,45.24
2017-08-28T11:40:05.718Z,44.54
2017-08-28T11:42:33.317Z,44.64
2017-08-28T11:45:01.271Z,44.61
2017-08-28T11:47:28.766Z,44.49
2017-08-28T11:49:56.255Z,44.41
2017-08-28T11:52:23.844Z,43.63
2017-08-28T11:54:51.310Z,43.71
2017-08-28T11:57:19.433Z,43.38
2017-08-28T11:59:46.928Z,43.40
2017-08-28T12:02:14.444Z,43.37
2017-08-28T12:04:41.959Z,43.23
2017-08-28T12:07:09.962Z,42.95
2017-08-28T12:09:38.202Z,42.05
2017-08-28T12:12:06.132Z,42.33
2017-08-28T12:14:33.660Z,42.72
2017-08-28T12:17:01.154Z,42.70
2017-08-28T12:19:28.681Z,42.67
2017-08-28T12:21:56.161Z,42.31
2017-08-28T12:24:23.641Z,43.48
2017-08-28T12:26:51.164Z,42.87
2017-08-28T12:29:18.947Z,42.75
2017-08-28T12:31:46.553Z,42.40
2017-08-28T12:34:14.053Z,42.47
2017-08-28T12:36:41.575Z,42.45
2017-08-28T12:39:09.120Z,41.32
2017-08-28T12:41:36.719Z,41.37
2017-08-28T12:44:04.828Z,41.16
2017-08-28T12:46:32.304Z,41.23
2017-08-28T12:48:59.804Z,40.70
2017-08-28T12:51:27.343Z,40.21
2017-08-28T12:53:55.815Z,40.09
2017-08-28T12:56:23.352Z,39.83
2017-08-28T12:58:50.911Z,39.70
2017-08-28T13:01:18.394Z,39.59
2017-08-28T13:03:47.848Z,39.50
2017-08-28T13:06:15.322Z,39.42
2017-08-28T13:08:43.707Z,38.97
2017-08-28T13:11:11.202Z,39.06
2017-08-28T13:13:38.718Z,39.29
2017-08-28T13:16:06.286Z,37.99
2017-08-28T13:18:33.801Z,37.92
2017-08-28T13:21:01.326Z,38.81
2017-08-28T13:23:28.857Z,40.10
2017-08-28T13:25:56.413Z,40.06
2017-08-28T13:28:23.961Z,39.90
2017-08-28T13:30:51.449Z,39.07
2017-08-28T13:33:18.953Z,38.80
2017-08-28T13:35:47.015Z,38.67
2017-08-28T13:38:14.540Z,37.54
2017-08-28T13:40:42.022Z,37.08
2017-08-28T13:43:09.582Z,38.05
2017-08-28T13:45:37.634Z,37.17
2017-08-28T13:48:06.178Z,37.22
2017-08-28T13:50:33.782Z,37.63
2017-08-28T13:53:01.284Z,37.50
2017-08-28T13:55:29.503Z,37.40
2017-08-28T13:57:58.484Z,38.35
2017-08-28T14:00:25.987Z,38.51
2017-08-28T14:02:53.475Z,38.09
2017-08-28T14:05:21.033Z,37.95
2017-08-28T14:08:03.034Z,37.79
2017-08-28T14:10:30.528Z,38.11
2017-08-28T14:12:58.043Z,37.84
2017-08-28T14:15:25.590Z,37.40
2017-08-28T14:17:53.151Z,37.01
2017-08-28T14:20:20.673Z,37.86
2017-08-28T14:22:48.228Z,37.12
2017-08-28T14:25:15.796Z,36.00
2017-08-28T14:27:43.279Z,35.39
2017-08-28T14:30:10.823Z,34.73
2017-08-28T14:32:38.811Z,35.36
2017-08-28T14:35:06.423Z,35.49
2017-08-28T14:37:33.910Z,36.45
2017-08-28T14:40:01.434Z,35.85
2017-08-28T14:42:28.896Z,34.68
2017-08-28T14:44:56.383Z,35.48
2017-08-28T14:47:23.904Z,34.69
2017-08-28T14:49:51.401Z,33.93
2017-08-28T14:52:18.919Z,34.75
2017-08-28T14:54:46.997Z,34.53
2017-08-28T14:57:14.490Z,34.08
2017-08-28T14:59:42.009Z,33.56
2017-08-28T15:02:09.497Z,33.13
2017-08-28T15:04:37.022Z,32.64
2017-08-28T15:07:04.846Z,31.63
2017-08-28T15:09:32.351Z,31.23
2017-08-28T15:11:59.906Z,32.59
2017-08-28T15:14:27.377Z,32.65
2017-08-28T15:16:54.874Z,32.53
2017-08-28T15:19:22.438Z,32.92
2017-08-28T15:21:49.991Z,32.80
2017-08-28T15:24:17.516Z,33.21
2017-08-28T15:26:44.985Z,32.96
2017-08-28T15:29:12.495Z,32.34
2017-08-28T15:31:39.964Z,32.51
2017-08-28T15:34:07.553Z,33.64
2017-08-28T15:36:35.029Z,32.46
2017-08-28T15:39:03.078Z,32.26
2017-08-28T15:41:30.606Z,31.34
2017-08-28T15:43:58.069Z,31.73
2017-08-28T15:46:25.559Z,32.42
2017-08-28T15:48:53.021Z,32.89
2017-08-28T15:51:20.521Z,32.42
2017-08-28T15:53:47.999Z,31.55
2017-08-28T15:56:15.487Z,30.51
2017-08-28T15:58:42.989Z,31.81
2017-08-28T16:01:10.477Z,32.55
2017-08-28T16:03:37.962Z,31.76
2017-08-28T16:06:05.442Z,31.02
2017-08-28T16:08:32.968Z,30.50
2017-08-28T16:11:00.494Z,30.20
2017-08-28T16:13:28.011Z,31.49
2017-08-28T16:15:55.479Z,31.06
2017-08-28T16:18:22.957Z,31.78
2017-08-28T16:20:50.449Z,32.71
2017-08-28T16:23:17.901Z,33.34
2017-08-28T16:25:45.390Z,32.67
2017-08-28T16:28:12.892Z,33.37
2017-08-28T16:30:40.396Z,32.48
2017-08-28T16:33:07.863Z,32.02
2017-08-28T16:35:35.376Z,31.31
2017-08-28T16:38:02.851Z,31.22
2017-08-28T16:40:30.356Z,32.16
2017-08-28T16:42:57.863Z,32.92
2017-08-28T16:45:25.376Z,33.22
2017-08-28T16:47:52.850Z,33.61
2017-08-28T16:50:20.736Z,33.69
2017-08-28T16:52:48.378Z,34.26
2017-08-28T16:55:15.872Z,34.29
2017-08-28T16:57:43.450Z,34.84
2017-08-28T17:00:10.922Z,35.10
2017-08-28T17:02:38.527Z,35.29
2017-08-28T17:05:06.026Z,35.77
2017-08-28T17:07:33.708Z,35.88
2017-08-28T17:10:02.268Z,35.84
2017-08-28T17:12:29.853Z,35.85
2017-08-28T17:14:57.347Z,35.57
2017-08-28T17:17:24.909Z,36.03
2017-08-28T17:19:52.497Z,36.59
2017-08-28T17:22:20.070Z,37.28
2017-08-28T17:24:47.599Z,37.81
2017-08-28T17:27:16.637Z,38.34
2017-08-28T17:29:44.276Z,38.72
2017-08-28T17:32:11.730Z,39.31
2017-08-28T17:34:39.262Z,40.25
2017-08-28T17:37:07.306Z,40.57
2017-08-28T17:39:34.770Z,40.86
2017-08-28T17:42:02.401Z,40.84
2017-08-28T17:44:29.911Z,40.89
2017-08-28T17:46:57.438Z,41.09
2017-08-28T17:49:24.897Z,41.41
2017-08-28T17:51:52.385Z,41.55
2017-08-28T17:54:19.907Z,47.35
2017-08-28T17:56:47.413Z,43.74
2017-08-28T17:59:14.946Z,42.75
2017-08-28T18:01:42.873Z,42.59
2017-08-28T18:04:10.381Z,42.24
2017-08-28T18:06:37.850Z,42.58
2017-08-28T18:09:05.394Z,42.39
2017-08-28T18:11:32.859Z,42.49
2017-08-28T18:14:00.343Z,42.30
2017-08-28T18:16:27.794Z,42.48
2017-08-28T18:18:55.480Z,42.35
2017-08-28T18:21:23.250Z,42.51
2017-08-28T18:23:50.751Z,42.39
2017-08-28T18:26:18.233Z,42.54
2017-08-28T18:28:45.716Z,42.97
2017-08-28T18:31:13.226Z,43.58
2017-08-28T18:33:40.748Z,43.49
2017-08-28T18:36:08.250Z,43.43
2017-08-28T18:38:35.715Z,43.50
2017-08-28T18:41:03.233Z,43.91
2017-08-28T18:43:30.722Z,44.29
2017-08-28T18:45:58.248Z,44.26
2017-08-28T18:48:25.746Z,44.54
2017-08-28T18:50:53.230Z,44.65
2017-08-28T18:53:20.784Z,44.71
2017-08-28T18:55:48.396Z,45.09
2017-08-28T18:58:15.894Z,45.91
2017-08-28T19:00:43.416Z,46.87
2017-08-28T19:03:10.917Z,47.07
2017-08-28T19:05:38.381Z,47.83
2017-08-28T19:08:06.023Z,47.51
2017-08-28T19:10:33.488Z,47.65
2017-08-28T19:13:00.971Z,47.47
2017-08-28T19:15:28.473Z,47.99
2017-08-28T19:17:56.044Z,48.88
2017-08-28T19:20:23.576Z,49.77
2017-08-28T19:22:51.062Z,50.25
2017-08-28T19:25:18.582Z,50.70
2017-08-28T19:27:46.114Z,50.95
2017-08-28T19:30:13.611Z,51.29
2017-08-28T19:32:41.097Z,51.74
2017-08-28T19:35:11.578Z,52.25
2017-08-28T19:37:39.089Z,52.09
2017-08-28T19:40:07.140Z,52.42
2017-08-28T19:42:34.657Z,52.46
2017-08-28T19:45:02.163Z,52.97
2017-08-28T19:47:29.668Z,53.39
2017-08-28T19:49:57.161Z,53.60
2017-08-28T19:52:24.702Z,53.52
2017-08-28T19:54:52.241Z,53.45
2017-08-28T19:57:19.727Z,53.92
2017-08-28T19:59:47.242Z,54.33
2017-08-28T20:02:14.722Z,54.88
2017-08-28T20:04:42.257Z,55.16
2017-08-28T20:07:10.222Z,55.37
2017-08-28T20:09:37.732Z,55.91
2017-08-28T20:12:05.339Z,56.28
2017-08-28T20:14:32.832Z,56.31
2017-08-28T20:17:00.329Z,56.24
2017-08-28T20:19:27.817Z,56.26
2017-08-28T20:21:55.332Z,56.69
2017-08-28T20:24:22.793Z,57.58
2017-08-28T20:26:50.312Z,58.14
2017-08-28T20:29:17.776Z,58.18
2017-08-28T20:31:45.285Z,57.67
2017-08-28T20:34:12.809Z,57.84
2017-08-28T20:36:40.280Z,57.78
2017-08-28T20:39:07.834Z,58.02
2017-08-28T20:41:35.319Z,58.39
2017-08-28T20:44:02.809Z,58.72
2017-08-28T20:46:30.295Z,58.57
2017-08-28T20:48:57.812Z,58.57
2017-08-28T20:51:25.298Z,58.44
2017-08-28T20:53:52.795Z,58.37
2017-08-28T20:56:20.314Z,58.36
2017-08-28T20:58:47.803Z,58.37
2017-08-28T21:01:15.312Z,58.27
2017-08-28T21:03:42.800Z,58.14
2017-08-28T21:06:10.305Z,58.35
2017-08-28T21:08:37.774Z,58.65
2017-08-28T21:11:05.288Z,58.59
2017-08-28T21:13:32.810Z,58.98
2017-08-28T21:16:00.355Z,59.29
2017-08-28T21:18:27.867Z,59.69
2017-08-28T21:20:55.354Z,59.69
2017-08-28T21:23:22.820Z,60.15
2017-08-28T21:25:50.379Z,60.34
2017-08-28T21:28:17.914Z,60.36
2017-08-28T21:30:45.399Z,60.28
2017-08-28T21:33:12.905Z,60.34
2017-08-28T21:35:40.389Z,60.41
2017-08-28T21:38:07.903Z,60.41
2017-08-28T21:40:35.473Z,60.56
2017-08-28T21:43:02.976Z,61.34
2017-08-28T21:45:30.458Z,61.43
2017-08-28T21:47:58.216Z,61.23
2017-08-28T21:50:25.694Z,61.30
2017-08-28T21:52:53.238Z,61.57
2017-08-28T21:55:20.791Z,61.68
2017-08-28T21:57:48.730Z,62.09
2017-08-28T22:00:16.191Z,62.27
2017-08-28T22:02:43.664Z,62.47
2017-08-28T22:05:11.176Z,62.79
2017-08-28T22:07:38.697Z,62.49
2017-08-28T22:10:06.211Z,62.77
2017-08-28T22:12:33.676Z,62.53
2017-08-28T22:15:01.283Z,62.73
2017-08-28T22:17:28.749Z,63.06
2017-08-28T22:19:56.242Z,63.65
2017-08-28T22:22:23.884Z,63.83
2017-08-28T22:24:51.369Z,63.65
2017-08-28T22:27:18.907Z,63.76
2017-08-28T22:29:46.399Z,64.26
2017-08-28T22:32:13.949Z,64.25
2017-08-28T22:34:41.759Z,64.34
2017-08-28T22:37:09.272Z,64.08
2017-08-28T22:39:36.731Z,64.03
2017-08-28T22:42:04.237Z,63.81
2017-08-28T22:44:31.709Z,64.06
2017-08-28T22:46:59.198Z,64.17
2017-08-28T22:49:26.689Z,64.45
2017-08-28T22:51:54.231Z,64.59
2017-08-28T22:54:21.756Z,64.34
2017-08-28T22:56:49.297Z,64.84
2017-08-28T22:59:16.813Z,64.71
2017-08-28T23:01:44.291Z,64.71
2017-08-28T23:04:11.791Z,65.01
2017-08-28T23:06:39.345Z,65.65
2017-08-28T23:09:06.844Z,65.64
2017-08-28T23:11:34.334Z,65.69
2017-08-28T23:14:01.850Z,65.80
2017-08-28T23:16:29.468Z,65.58
2017-08-28T23:18:57.024Z,65.65
2017-08-28T23:21:24.485Z,65.66
2017-08-28T23:23:52.331Z,65.79
2017-08-28T23:26:19.836Z,65.77
2017-08-28T23:28:47.339Z,66.24
2017-08-28T23:31:14.826Z,66.40
2017-08-28T23:33:42.327Z,66.35
2017-08-28T23:36:09.909Z,66.21
2017-08-28T23:38:37.385Z,66.19
2017-08-28T23:41:05.035Z,66.41
2017-08-28T23:43:32.629Z,66.57
2017-08-28T23:46:00.109Z,66.11
2017-08-28T23:48:27.640Z,66.46
2017-08-28T23:50:55.354Z,66.93
2017-08-28T23:53:22.858Z,66.69
2017-08-28T23:55:50.334Z,66.73
2017-08-28T23:58:17.859Z,66.82
